Time;durP1;ratioP1;P1;durP2;ratioP2;P2;SDS_P1;SDS_P2;PMS_P1;PMS_P2;Temp;Humidity;BMP_temperature;BMP_pressure;BME280_temperature;BME280_humidity;BME280_pressure;Samples;Min_cycle;Max_cycle;Signal;HPM_P1;HPM_P2
2020/01/01 00:00:41;;;;;;;250;214.3;;;;;;;3.62;88.4541;975.3459;;;;
2020/01/01 00:03:06;;;;;;;223.4;191.1;;;;;;;3.7;87.95996;975.4207;;;;
2020/01/01 00:05:31;;;;;;;245.6;207.9;;;;;;;3.64;87.91309;975.3624;;;;
2020/01/01 00:07:56;;;;;;;230.2;193.2;;;;;;;3.64;88.50195;975.3228;;;;
2020/01/01 00:10:24;;;;;;;202.8;170.1;;;;;;;3.68;88.35254;975.2811;;;;
2020/01/01 00:12:49;;;;;;;201.1;164.6;;;;;;;3.73;88.23926;975.3011;;;;
2020/01/01 00:15:12;;;;;;;182.4;148;;;;;;;3.68;89.07715;975.3342;;;;
2020/01/01 00:17:37;;;;;;;133.3;110.4;;;;;;;3.84;89.62109;975.3365;;;;
2020/01/01 00:20:02;;;;;;;164.7;130.1;;;;;;;3.72;90.07227;975.4086;;;;
2020/01/01 00:22:27;;;;;;;150.1;125.6;;;;;;;3.72;91.04395;975.4383;;;;
2020/01/01 00:24:52;;;;;;;158.4;133.1;;;;;;;3.8;89.7832;975.4128;;;;
2020/01/01 00:27:17;;;;;;;146.9;122.5;;;;;;;3.81;90.19141;975.4348;;;;
2020/01/01 00:29:42;;;;;;;139.3;114.4;;;;;;;3.84;89.91504;975.4411;;;;
2020/01/01 00:32:08;;;;;;;151.6;129.3;;;;;;;3.69;90.26855;975.4458;;;;
2020/01/01 00:34:33;;;;;;;162.9;136.2;;;;;;;3.75;90.31543;975.4108;;;;
2020/01/01 00:36:58;;;;;;;163.9;134.7;;;;;;;3.75;89.87402;975.4878;;;;
2020/01/01 00:39:23;;;;;;;157.5;130.1;;;;;;;3.65;90.57813;975.4878;;;;
2020/01/01 00:41:48;;;;;;;124;105.6;;;;;;;3.68;90.53809;975.5528;;;;
2020/01/01 00:44:13;;;;;;;100.2;80.8;;;;;;;3.77;88.76758;975.5912;;;;
2020/01/01 00:46:38;;;;;;;72.6;60;;;;;;;3.74;88.09375;975.6133;;;;
2020/01/01 00:49:03;;;;;;;72.7;59;;;;;;;3.65;89.13965;975.6152;;;;
2020/01/01 00:51:29;;;;;;;73.9;58.2;;;;;;;3.56;89.34766;975.5764;;;;
2020/01/01 00:53:54;;;;;;;63.8;53.1;;;;;;;3.69;88.73926;975.6353;;;;
2020/01/01 00:56:19;;;;;;;63.7;53.7;;;;;;;3.74;88.78418;975.6724;;;;
2020/01/01 00:58:44;;;;;;;71.1;57.1;;;;;;;3.52;90.2207;975.706;;;;
2020/01/01 01:01:09;;;;;;;65.8;55.1;;;;;;;3.53;90.18848;975.7875;;;;
2020/01/01 01:03:37;;;;;;;86.1;69;;;;;;;3.26;91.13867;975.7842;;;;
2020/01/01 01:05:59;;;;;;;96.6;80.2;;;;;;;3.15;91.55664;975.7846;;;;
2020/01/01 01:08:24;;;;;;;163.6;133.5;;;;;;;2.89;92.13379;975.7034;;;;
2020/01/01 01:10:49;;;;;;;175;147.5;;;;;;;2.98;91.92773;975.7192;;;;
2020/01/01 01:13:14;;;;;;;186.9;157.9;;;;;;;2.91;92.17188;975.7539;;;;
2020/01/01 01:15:40;;;;;;;189.6;158.9;;;;;;;2.88;92.45996;975.7777;;;;
2020/01/01 01:18:05;;;;;;;228;195.6;;;;;;;2.82;92.69531;975.8159;;;;
2020/01/01 01:20:30;;;;;;;222.4;188;;;;;;;2.92;92.37695;975.8109;;;;
2020/01/01 01:22:55;;;;;;;217;184.3;;;;;;;2.89;93.06152;975.8022;;;;
2020/01/01 01:25:20;;;;;;;217.8;187;;;;;;;2.82;93.2832;975.8183;;;;
2020/01/01 01:30:12;;;;;;;221.5;187.5;;;;;;;2.91;93.68457;975.9172;;;;
2020/01/01 01:32:35;;;;;;;206.2;175.7;;;;;;;2.92;93.54199;975.9349;;;;
2020/01/01 01:35:00;;;;;;;195.8;166.9;;;;;;;2.95;93.12012;975.8635;;;;
2020/01/01 01:37:26;;;;;;;182.5;155.8;;;;;;;2.95;93.48145;975.8312;;;;
2020/01/01 01:39:51;;;;;;;184.4;155.6;;;;;;;2.96;93.64063;975.8042;;;;
2020/01/01 01:42:16;;;;;;;181.5;152.9;;;;;;;3.04;93.83887;975.8069;;;;
2020/01/01 01:44:41;;;;;;;171.8;143.8;;;;;;;2.92;93.99414;975.8061;;;;
2020/01/01 01:47:06;;;;;;;162.2;137.6;;;;;;;3.03;93.96289;975.8268;;;;
2020/01/01 01:49:31;;;;;;;159.6;134.4;;;;;;;3.14;93.29688;975.8036;;;;
2020/01/01 01:51:56;;;;;;;150.9;127.4;;;;;;;3.21;93.06348;975.7127;;;;
2020/01/01 01:54:21;;;;;;;143.3;122.8;;;;;;;3.11;93.65137;975.7969;;;;
2020/01/01 01:56:46;;;;;;;122.8;105.3;;;;;;;3.11;93.87695;975.7177;;;;
2020/01/01 01:59:11;;;;;;;106.7;91;;;;;;;3.18;93.11426;975.6235;;;;
2020/01/01 02:01:37;;;;;;;108.1;90.4;;;;;;;3.22;92.89453;975.6091;;;;
2020/01/01 02:04:02;;;;;;;91;76.1;;;;;;;3.28;91.93457;975.5483;;;;
2020/01/01 02:06:27;;;;;;;85.9;72.1;;;;;;;3.25;92.0293;975.5306;;;;
2020/01/01 02:08:52;;;;;;;78.6;66.7;;;;;;;3.28;91.83496;975.5251;;;;
2020/01/01 02:11:18;;;;;;;76.9;63.6;;;;;;;3.23;91.22363;975.4347;;;;
2020/01/01 02:13:43;;;;;;;66.5;56.6;;;;;;;2.91;92.22852;975.457;;;;
2020/01/01 02:16:08;;;;;;;65.3;54.9;;;;;;;2.86;92.64648;975.4322;;;;
2020/01/01 02:18:33;;;;;;;69.5;56.2;;;;;;;2.81;92.93066;975.4567;;;;
2020/01/01 02:20:58;;;;;;;63.5;54.2;;;;;;;2.94;92.45996;975.4928;;;;
2020/01/01 02:23:23;;;;;;;63.7;53.6;;;;;;;2.9;93.22168;975.4493;;;;
2020/01/01 02:25:49;;;;;;;65.3;54.7;;;;;;;2.81;93.16992;975.4386;;;;
2020/01/01 02:28:14;;;;;;;62.6;53.4;;;;;;;2.81;92.24121;975.4106;;;;
2020/01/01 02:30:39;;;;;;;68.5;54.8;;;;;;;2.88;91.88184;975.3814;;;;
2020/01/01 02:33:04;;;;;;;64;53;;;;;;;2.92;91.83496;975.4058;;;;
2020/01/01 02:35:29;;;;;;;68.2;55.6;;;;;;;2.9;92.26074;975.4074;;;;
2020/01/01 02:37:54;;;;;;;66.3;55.8;;;;;;;2.87;92.08496;975.4705;;;;
2020/01/01 02:40:19;;;;;;;69.8;58.1;;;;;;;2.83;92.80078;975.4512;;;;
2020/01/01 02:42:44;;;;;;;62.8;53.8;;;;;;;2.96;92.00098;975.4531;;;;
2020/01/01 02:45:10;;;;;;;70.2;58.8;;;;;;;2.88;91.45215;975.3814;;;;
2020/01/01 02:47:49;;;;;;;71.1;59.2;;;;;;;2.86;91.86816;975.3784;;;;
2020/01/01 02:50:00;;;;;;;74.3;60.2;;;;;;;2.88;91.65723;975.3872;;;;
2020/01/01 02:52:26;;;;;;;74.3;59.8;;;;;;;2.89;90.87891;975.3904;;;;
2020/01/01 02:54:51;;;;;;;73.4;61;;;;;;;2.82;91.92676;975.389;;;;
2020/01/01 02:57:16;;;;;;;73.9;61;;;;;;;2.83;91.36133;975.305;;;;
2020/01/01 02:59:41;;;;;;;72.9;59.3;;;;;;;2.81;91.05566;975.2825;;;;
2020/01/01 03:02:06;;;;;;;73.8;61.3;;;;;;;2.8;90.51953;975.228;;;;
2020/01/01 03:04:31;;;;;;;67.3;58.2;;;;;;;2.78;90.86523;975.2151;;;;
2020/01/01 03:06:57;;;;;;;70.6;58.8;;;;;;;2.82;90.55859;975.192;;;;
2020/01/01 03:09:22;;;;;;;72.6;58;;;;;;;2.75;90.63379;975.2525;;;;
2020/01/01 03:11:47;;;;;;;69.4;57.4;;;;;;;2.8;90.57715;975.2428;;;;
2020/01/01 03:14:12;;;;;;;68.9;56.9;;;;;;;2.82;90.43457;975.1833;;;;
2020/01/01 03:16:37;;;;;;;72.9;59.7;;;;;;;2.85;90.37207;975.1691;;;;
2020/01/01 03:19:02;;;;;;;76.3;61.5;;;;;;;2.95;89.72852;975.1904;;;;
2020/01/01 03:21:27;;;;;;;77.4;63.6;;;;;;;2.71;90.54688;975.1819;;;;
2020/01/01 03:23:59;;;;;;;77.2;64.1;;;;;;;2.73;90.49414;975.1508;;;;
2020/01/01 03:26:25;;;;;;;76.6;61.6;;;;;;;2.61;90.49219;975.1436;;;;
2020/01/01 03:28:43;;;;;;;73.7;62.6;;;;;;;2.59;91.24512;975.142;;;;
2020/01/01 03:31:08;;;;;;;75.9;62;;;;;;;2.6;91.57324;975.1494;;;;
2020/01/01 03:33:33;;;;;;;76.2;60.5;;;;;;;2.71;90.60156;975.1295;;;;
2020/01/01 03:35:59;;;;;;;75.4;60;;;;;;;2.71;90.41113;975.1369;;;;
2020/01/01 03:38:24;;;;;;;72.8;59.1;;;;;;;2.74;90.05566;975.1713;;;;
2020/01/01 03:40:49;;;;;;;72.1;59.7;;;;;;;2.78;90.20996;975.125;;;;
2020/01/01 03:43:14;;;;;;;74.1;60.7;;;;;;;2.64;90.74609;975.087;;;;
2020/01/01 03:45:39;;;;;;;70.8;58.8;;;;;;;2.74;90.37207;975.0834;;;;
2020/01/01 03:52:56;;;;;;;72.2;59;;;;;;;2.47;92.07617;975.0347;;;;
2020/01/01 03:55:20;;;;;;;68.9;58.3;;;;;;;2.53;91.60449;975.0801;;;;
2020/01/01 03:57:45;;;;;;;68.7;57.4;;;;;;;2.52;91.50098;975.1046;;;;
2020/01/01 04:02:30;;;;;;;69.2;57.1;;;;;;;2.48;91.58398;975.0623;;;;
2020/01/01 04:04:54;;;;;;;69.4;56.9;;;;;;;2.47;91.83008;975.0726;;;;
2020/01/01 04:07:21;;;;;;;64.4;54.9;;;;;;;2.54;91.79883;975.0535;;;;
2020/01/01 04:09:44;;;;;;;66.6;55.2;;;;;;;2.52;91.63477;975.0591;;;;
2020/01/01 04:12:08;;;;;;;70.2;57.7;;;;;;;2.45;92.16309;975.0417;;;;
2020/01/01 04:14:33;;;;;;;68.4;57.4;;;;;;;2.37;92.5957;975.01;;;;
2020/01/01 04:17:53;;;;;;;62.3;53.8;;;;;;;2.43;92.44141;975.0229;;;;
2020/01/01 04:20:18;;;;;;;69.8;57.6;;;;;;;2.37;92.75488;975.0844;;;;
2020/01/01 04:22:43;;;;;;;67;57.3;;;;;;;2.43;92.37402;975.0761;;;;
2020/01/01 04:25:08;;;;;;;65.6;55.4;;;;;;;2.41;92.65039;975.0864;;;;
2020/01/01 04:27:33;;;;;;;65.3;54.3;;;;;;;2.43;92.51855;975.033;;;;
2020/01/01 04:29:58;;;;;;;66;55.3;;;;;;;2.4;92.67285;974.9927;;;;
2020/01/01 04:32:23;;;;;;;65;54.7;;;;;;;2.48;92.29297;974.9819;;;;
2020/01/01 04:34:49;;;;;;;67.3;55.3;;;;;;;2.48;92.18066;974.9989;;;;
2020/01/01 04:37:14;;;;;;;65.5;54.9;;;;;;;2.43;92.75781;974.9667;;;;
2020/01/01 04:39:39;;;;;;;66.6;55.2;;;;;;;2.51;92.35547;974.9668;;;;
2020/01/01 04:42:04;;;;;;;63.9;53.5;;;;;;;2.43;92.63184;974.8833;;;;
2020/01/01 04:44:29;;;;;;;66.4;55.5;;;;;;;2.39;92.75879;974.8425;;;;
2020/01/01 04:46:54;;;;;;;62;52.2;;;;;;;2.44;92.56738;974.8522;;;;
2020/01/01 04:49:19;;;;;;;62.9;53.4;;;;;;;2.43;92.61133;974.8782;;;;
2020/01/01 04:51:44;;;;;;;63.6;53.4;;;;;;;2.5;92.13867;974.9144;;;;
2020/01/01 04:54:09;;;;;;;63.7;53.6;;;;;;;2.32;93.02539;974.9041;;;;
2020/01/01 04:56:34;;;;;;;60.4;53.6;;;;;;;2.42;92.66504;974.9036;;;;
2020/01/01 04:58:59;;;;;;;59.6;51.8;;;;;;;2.35;93;974.9418;;;;
2020/01/01 05:01:24;;;;;;;61.6;52.6;;;;;;;2.35;92.99805;974.9103;;;;
2020/01/01 05:03:49;;;;;;;63.2;52.4;;;;;;;2.3;93.38281;974.9028;;;;
2020/01/01 05:06:14;;;;;;;60.3;51.8;;;;;;;2.33;93.26465;974.8173;;;;
2020/01/01 05:08:39;;;;;;;63.7;53;;;;;;;2.27;93.39941;974.8287;;;;
2020/01/01 05:11:04;;;;;;;64.1;53.8;;;;;;;2.28;93.34375;974.8329;;;;
2020/01/01 05:13:30;;;;;;;62.9;54.7;;;;;;;2.15;93.84766;974.8114;;;;
2020/01/01 05:15:55;;;;;;;60.7;52.3;;;;;;;2.24;93.49316;974.8109;;;;
2020/01/01 05:18:20;;;;;;;59.8;51.6;;;;;;;2.22;93.44434;974.8689;;;;
2020/01/01 05:20:45;;;;;;;63.4;53.2;;;;;;;2.16;93.98535;974.8652;;;;
2020/01/01 05:23:10;;;;;;;58.4;50.6;;;;;;;2.1;94.11621;974.8988;;;;
2020/01/01 05:25:35;;;;;;;63;52.9;;;;;;;2.05;94.45801;974.8848;;;;
2020/01/01 05:28:00;;;;;;;65.1;52.9;;;;;;;2.11;93.98535;974.9374;;;;
2020/01/01 05:30:25;;;;;;;59.6;51.2;;;;;;;2.16;93.92871;974.9366;;;;
2020/01/01 05:32:50;;;;;;;62;52.6;;;;;;;2.19;94.05957;974.9459;;;;
2020/01/01 05:35:15;;;;;;;59.9;51.1;;;;;;;2.13;94.19238;974.9085;;;;
2020/01/01 05:37:40;;;;;;;62.1;51.8;;;;;;;2.09;94.74609;974.9386;;;;
2020/01/01 05:40:05;;;;;;;60.6;51.1;;;;;;;2.1;94.43457;974.9191;;;;
2020/01/01 05:42:31;;;;;;;58.6;50.4;;;;;;;2.14;94.26172;974.9871;;;;
2020/01/01 05:44:56;;;;;;;58.4;50.6;;;;;;;2.13;94.21289;975.0465;;;;
2020/01/01 05:47:21;;;;;;;61.3;52.2;;;;;;;2.03;94.77051;975.07;;;;
2020/01/01 05:49:46;;;;;;;62.2;53.4;;;;;;;2.03;94.72461;975.0717;;;;
2020/01/01 05:52:11;;;;;;;65.7;55.6;;;;;;;1.87;95.69043;975.0958;;;;
2020/01/01 05:54:36;;;;;;;63.5;53.8;;;;;;;2.04;95.01855;975.116;;;;
2020/01/01 05:57:01;;;;;;;64.7;53.6;;;;;;;2.01;95.22656;975.1253;;;;
2020/01/01 05:59:26;;;;;;;62.8;53.8;;;;;;;1.94;95.41309;975.1077;;;;
2020/01/01 06:01:51;;;;;;;64.4;53.8;;;;;;;1.9;95.67383;975.1808;;;;
2020/01/01 06:04:16;;;;;;;61.5;54.5;;;;;;;1.77;96.67188;975.17;;;;
2020/01/01 06:06:42;;;;;;;68.5;56.7;;;;;;;1.67;96.99902;975.2339;;;;
2020/01/01 06:09:07;;;;;;;63.9;55;;;;;;;1.76;97.03027;975.2278;;;;
2020/01/01 06:11:32;;;;;;;66.3;55.3;;;;;;;1.98;95.86133;975.2303;;;;
2020/01/01 06:13:57;;;;;;;65.6;55;;;;;;;1.91;95.59961;975.2131;;;;
2020/01/01 06:16:22;;;;;;;65.1;55.9;;;;;;;1.85;95.84473;975.2202;;;;
2020/01/01 06:18:47;;;;;;;66.8;56.5;;;;;;;1.83;96.02051;975.2144;;;;
2020/01/01 06:21:12;;;;;;;67.5;56.2;;;;;;;1.8;96.16113;975.318;;;;
2020/01/01 06:23:37;;;;;;;68.9;57.6;;;;;;;1.69;97.16113;975.3552;;;;
2020/01/01 06:26:02;;;;;;;70.6;58.1;;;;;;;1.71;97.2666;975.3092;;;;
2020/01/01 06:28:27;;;;;;;65.9;55.4;;;;;;;1.75;96.8916;975.2653;;;;
2020/01/01 06:30:52;;;;;;;66.9;56.1;;;;;;;1.76;96.52148;975.2381;;;;
2020/01/01 06:33:17;;;;;;;70.6;57.8;;;;;;;1.86;95.72266;975.2849;;;;
2020/01/01 06:35:42;;;;;;;66.9;56.9;;;;;;;1.84;95.96484;975.2854;;;;
2020/01/01 06:38:08;;;;;;;66.6;55.4;;;;;;;1.88;95.52344;975.2483;;;;
2020/01/01 06:40:33;;;;;;;67.6;55.8;;;;;;;1.85;95.30273;975.1736;;;;
2020/01/01 06:42:58;;;;;;;66.6;57.7;;;;;;;1.65;96.01172;975.1679;;;;
2020/01/01 06:45:23;;;;;;;64.7;55.5;;;;;;;1.66;96.15137;975.1326;;;;
2020/01/01 06:47:48;;;;;;;67.9;55.5;;;;;;;1.76;95.92383;975.1423;;;;
2020/01/01 06:50:13;;;;;;;67.6;55.5;;;;;;;1.64;96.02344;975.1807;;;;
2020/01/01 06:52:39;;;;;;;64.5;54.5;;;;;;;1.6;96.22754;975.077;;;;
2020/01/01 06:55:04;;;;;;;67.5;56.4;;;;;;;1.58;96.33594;975.0724;;;;
2020/01/01 06:57:29;;;;;;;70.6;58.2;;;;;;;1.49;96.84473;975.035;;;;
2020/01/01 06:59:54;;;;;;;67.8;56;;;;;;;1.59;96.17969;974.9738;;;;
2020/01/01 07:02:19;;;;;;;67.2;55.5;;;;;;;1.62;96.40234;974.9152;;;;
2020/01/01 07:04:44;;;;;;;67.2;55.9;;;;;;;1.59;95.97754;974.9016;;;;
2020/01/01 07:07:10;;;;;;;66.1;56.4;;;;;;;1.59;96.31543;974.9761;;;;
2020/01/01 07:09:35;;;;;;;70.1;57.9;;;;;;;1.62;96.38867;974.9861;;;;
2020/01/01 07:12:00;;;;;;;67;57.2;;;;;;;1.62;95.96289;975.0309;;;;
2020/01/01 07:14:25;;;;;;;72.6;59.6;;;;;;;1.48;96.56152;975.1522;;;;
2020/01/01 07:16:50;;;;;;;70.1;60.9;;;;;;;1.39;97.36133;975.1301;;;;
2020/01/01 07:19:15;;;;;;;72.1;59.3;;;;;;;1.39;97.39453;975.1478;;;;
2020/01/01 07:21:41;;;;;;;72.3;59.3;;;;;;;1.42;97.19824;975.2042;;;;
2020/01/01 07:24:06;;;;;;;75.3;62;;;;;;;1.44;97.61035;975.267;;;;
2020/01/01 07:26:31;;;;;;;74.1;60.7;;;;;;;1.43;97.22754;975.2519;;;;
2020/01/01 07:28:56;;;;;;;72.2;60.5;;;;;;;1.54;96.96973;975.1866;;;;
2020/01/01 07:31:21;;;;;;;76.1;61.5;;;;;;;1.45;97.10742;975.2102;;;;
2020/01/01 07:33:46;;;;;;;77.5;62.3;;;;;;;1.47;96.68164;975.1997;;;;
2020/01/01 07:36:12;;;;;;;74;62.4;;;;;;;1.31;97.75977;975.1808;;;;
2020/01/01 07:38:37;;;;;;;69.7;60.7;;;;;;;1.35;97.76953;975.1906;;;;
2020/01/01 07:41:02;;;;;;;72.3;61.3;;;;;;;1.43;97.0918;975.2728;;;;
2020/01/01 07:43:27;;;;;;;69.3;59.3;;;;;;;1.4;97.38574;975.3005;;;;
2020/01/01 07:45:52;;;;;;;69.9;60.8;;;;;;;1.35;97.5127;975.3189;;;;
2020/01/01 07:48:17;;;;;;;74.3;62.8;;;;;;;1.31;97.86035;975.449;;;;
2020/01/01 07:50:43;;;;;;;76.8;63.6;;;;;;;1.36;97.63672;975.4998;;;;
2020/01/01 07:53:08;;;;;;;75.4;62.5;;;;;;;1.3;97.86035;975.5835;;;;
2020/01/01 07:55:33;;;;;;;74.1;62.1;;;;;;;1.3;97.74805;975.5289;;;;
2020/01/01 07:57:58;;;;;;;73.4;63.1;;;;;;;1.27;98.13379;975.5499;;;;
2020/01/01 08:00:23;;;;;;;81.4;68.7;;;;;;;1.34;97.83496;975.5481;;;;
2020/01/01 08:02:49;;;;;;;83.2;69.9;;;;;;;1.22;98.71875;975.6443;;;;
2020/01/01 08:05:14;;;;;;;78.9;65.8;;;;;;;1.21;99.02246;975.6135;;;;
2020/01/01 08:07:39;;;;;;;79.2;66.8;;;;;;;1.29;98.61133;975.5979;;;;
2020/01/01 08:10:04;;;;;;;83.4;70;;;;;;;1.24;98.47656;975.595;;;;
2020/01/01 08:12:29;;;;;;;82.4;70.4;;;;;;;1.16;98.82715;975.5671;;;;
2020/01/01 08:14:54;;;;;;;85.1;70.5;;;;;;;1.06;99.16699;975.5988;;;;
2020/01/01 08:17:19;;;;;;;85.5;69.4;;;;;;;1.23;98.58691;975.7079;;;;
2020/01/01 08:19:45;;;;;;;82.4;70.1;;;;;;;1.24;98.54395;975.7316;;;;
2020/01/01 08:22:10;;;;;;;82.2;70.5;;;;;;;1.17;98.95508;975.7329;;;;
2020/01/01 08:24:35;;;;;;;86.4;71.1;;;;;;;1.2;98.87207;975.7328;;;;
2020/01/01 08:27:00;;;;;;;82.8;71.2;;;;;;;1.21;98.78418;975.7245;;;;
2020/01/01 08:29:25;;;;;;;86.3;73.4;;;;;;;1.22;98.62988;975.7089;;;;
2020/01/01 08:31:50;;;;;;;83.3;71.4;;;;;;;1.26;98.59375;975.7095;;;;
2020/01/01 08:34:16;;;;;;;84.1;71.3;;;;;;;1.24;98.35059;975.8105;;;;
2020/01/01 08:36:41;;;;;;;90.1;73.3;;;;;;;1.18;98.7998;975.8199;;;;
2020/01/01 08:39:07;;;;;;;85.7;71.8;;;;;;;1.19;99.10449;975.8897;;;;
2020/01/01 08:41:32;;;;;;;86.7;73.5;;;;;;;1.19;98.71387;975.8878;;;;
2020/01/01 08:43:58;;;;;;;81.8;70;;;;;;;1.29;98.59961;975.928;;;;
2020/01/01 08:46:23;;;;;;;89;73.9;;;;;;;1.16;99.01855;975.9707;;;;
2020/01/01 08:48:48;;;;;;;81.6;68.8;;;;;;;1.26;98.58203;975.9006;;;;
2020/01/01 08:51:14;;;;;;;79.7;68.2;;;;;;;1.31;98.24609;975.8872;;;;
2020/01/01 08:53:39;;;;;;;78.9;67.7;;;;;;;1.28;97.91309;975.8253;;;;
2020/01/01 08:56:04;;;;;;;79.2;67.3;;;;;;;1.32;98.06738;975.8561;;;;
2020/01/01 08:58:29;;;;;;;80.3;68.2;;;;;;;1.27;97.52539;975.9167;;;;
2020/01/01 09:00:55;;;;;;;79.9;65.5;;;;;;;1.43;96.93164;975.9738;;;;
2020/01/01 09:03:20;;;;;;;79.3;66.5;;;;;;;1.35;96.45215;975.9369;;;;
2020/01/01 09:05:45;;;;;;;82.2;68.5;;;;;;;1.15;97.72461;975.9308;;;;
2020/01/01 09:08:10;;;;;;;76;64;;;;;;;1.36;97.02832;975.9;;;;
2020/01/01 09:10:35;;;;;;;74.9;64.5;;;;;;;1.34;96.78809;975.8979;;;;
2020/01/01 09:13:01;;;;;;;81.2;67.1;;;;;;;1.34;96.99023;975.9327;;;;
2020/01/01 09:15:26;;;;;;;71.8;62.2;;;;;;;1.51;96.28613;975.8895;;;;
2020/01/01 09:17:51;;;;;;;69.4;59.9;;;;;;;1.67;95.65527;975.8641;;;;
2020/01/01 09:20:16;;;;;;;71.1;59.1;;;;;;;1.63;95.03906;975.7725;;;;
2020/01/01 09:22:41;;;;;;;75.2;63.5;;;;;;;1.64;95.00684;975.8353;;;;
2020/01/01 09:25:06;;;;;;;73.4;62.6;;;;;;;1.57;95.13965;975.8002;;;;
2020/01/01 09:27:32;;;;;;;72.6;61.4;;;;;;;1.74;94.76953;975.8304;;;;
2020/01/01 09:29:57;;;;;;;69.7;59.2;;;;;;;1.75;94.7959;975.7709;;;;
2020/01/01 09:32:23;;;;;;;69.5;59.8;;;;;;;1.85;94.43457;975.7313;;;;
2020/01/01 09:34:48;;;;;;;72.6;61.8;;;;;;;1.79;94.5332;975.7307;;;;
2020/01/01 09:37:14;;;;;;;75.1;62.1;;;;;;;1.77;94.38281;975.7711;;;;
2020/01/01 09:39:39;;;;;;;69.5;59.3;;;;;;;1.89;93.69824;975.7164;;;;
2020/01/01 09:42:04;;;;;;;72.4;60.4;;;;;;;1.9;93.83594;975.7033;;;;
2020/01/01 09:44:29;;;;;;;68.5;58.6;;;;;;;1.94;93.5752;975.77;;;;
2020/01/01 09:46:54;;;;;;;68.2;58.1;;;;;;;2.07;92.48535;975.76;;;;
2020/01/01 09:49:20;;;;;;;66.5;56.5;;;;;;;2.12;92.50879;975.7589;;;;
2020/01/01 09:51:45;;;;;;;67.4;56;;;;;;;2.07;92.2373;975.8571;;;;
2020/01/01 09:54:11;;;;;;;61.2;53.1;;;;;;;2.15;92.26855;975.8005;;;;
2020/01/01 09:56:36;;;;;;;64.4;56.1;;;;;;;2.15;92.09668;975.8217;;;;
2020/01/01 09:59:01;;;;;;;64.7;55.2;;;;;;;2.13;92.23828;975.8361;;;;
2020/01/01 10:01:26;;;;;;;64.9;53.7;;;;;;;2.31;91.28516;975.7383;;;;
2020/01/01 10:03:51;;;;;;;62.5;54.7;;;;;;;2.25;91.68945;975.7346;;;;
2020/01/01 10:06:16;;;;;;;61.7;53.5;;;;;;;2.24;91.59766;975.7551;;;;
2020/01/01 10:08:42;;;;;;;62.2;53;;;;;;;2.29;91.38281;975.7402;;;;
2020/01/01 10:11:07;;;;;;;61.5;52.4;;;;;;;2.41;90.86621;975.6758;;;;
2020/01/01 10:13:32;;;;;;;62.1;52.7;;;;;;;2.42;91.06152;975.5809;;;;
2020/01/01 10:15:58;;;;;;;60.6;52;;;;;;;2.37;91.06152;975.5251;;;;
2020/01/01 10:18:23;;;;;;;56.3;47.8;;;;;;;2.55;90.36426;975.5207;;;;
2020/01/01 10:20:48;;;;;;;53.3;46;;;;;;;2.6;89.46191;975.4941;;;;
2020/01/01 10:23:13;;;;;;;54.5;48.3;;;;;;;2.68;90.06445;975.5419;;;;
2020/01/01 10:25:39;;;;;;;57.1;50.3;;;;;;;2.5;90.35449;975.4688;;;;
2020/01/01 10:28:04;;;;;;;54.8;48.5;;;;;;;2.59;90.01367;975.4783;;;;
2020/01/01 10:30:29;;;;;;;56.5;46.2;;;;;;;2.48;90.34082;975.4388;;;;
2020/01/01 10:32:54;;;;;;;56.4;49.1;;;;;;;2.61;90.28906;975.4709;;;;
2020/01/01 10:35:19;;;;;;;54;47.6;;;;;;;2.7;90.19336;975.4153;;;;
2020/01/01 10:37:44;;;;;;;53.7;46.5;;;;;;;2.62;90.32422;975.405;;;;
2020/01/01 10:40:10;;;;;;;51.9;45.3;;;;;;;2.68;89.79395;975.3703;;;;
2020/01/01 10:42:35;;;;;;;53.6;46.3;;;;;;;2.71;90.1084;975.3287;;;;
2020/01/01 10:45:00;;;;;;;51.9;44.3;;;;;;;2.81;89.83496;975.2487;;;;
2020/01/01 10:47:25;;;;;;;46.1;40.4;;;;;;;2.95;88.8125;975.2064;;;;
2020/01/01 10:49:50;;;;;;;47.2;40.9;;;;;;;2.97;88.68066;975.1682;;;;
2020/01/01 10:52:16;;;;;;;45;39.6;;;;;;;3.08;88.2168;975.1381;;;;
2020/01/01 10:54:41;;;;;;;39.9;35.5;;;;;;;3.16;87.42969;975.1442;;;;
2020/01/01 10:57:06;;;;;;;38;33.9;;;;;;;3.2;86.625;975.0677;;;;
2020/01/01 10:59:32;;;;;;;37.5;33.4;;;;;;;3.2;86.62305;975.1035;;;;
2020/01/01 11:01:57;;;;;;;32.7;29.1;;;;;;;3.27;85.39258;975.1053;;;;
2020/01/01 11:04:23;;;;;;;32.9;29.1;;;;;;;3.31;85.19824;975.0641;;;;
2020/01/01 11:06:48;;;;;;;30;26.6;;;;;;;3.37;84.56348;974.933;;;;
2020/01/01 11:09:13;;;;;;;31.2;27.7;;;;;;;3.39;84.32031;974.9023;;;;
2020/01/01 11:11:38;;;;;;;32.3;28.9;;;;;;;3.47;84.30078;974.8293;;;;
2020/01/01 11:14:03;;;;;;;32.7;29.1;;;;;;;3.43;84.04395;974.8681;;;;
2020/01/01 11:16:29;;;;;;;35.3;30.6;;;;;;;3.22;84.81836;974.8457;;;;
2020/01/01 11:18:54;;;;;;;35.2;31.1;;;;;;;3.37;84.79004;974.7533;;;;
2020/01/01 11:21:20;;;;;;;35;30.8;;;;;;;3.35;84.27734;974.7111;;;;
2020/01/01 11:23:45;;;;;;;36.1;32.2;;;;;;;3.39;84.79395;974.604;;;;
2020/01/01 11:26:10;;;;;;;37.6;32.9;;;;;;;3.28;84.86328;974.5859;;;;
2020/01/01 11:28:35;;;;;;;36.2;32.1;;;;;;;3.36;84.70898;974.5341;;;;
2020/01/01 11:31:00;;;;;;;38;33.2;;;;;;;3.38;85.26758;974.4719;;;;
2020/01/01 11:33:26;;;;;;;36.5;32.4;;;;;;;3.46;84.46973;974.5028;;;;
2020/01/01 11:35:51;;;;;;;36.1;31.9;;;;;;;3.65;83.5791;974.5276;;;;
2020/01/01 11:38:16;;;;;;;37;32.7;;;;;;;3.68;83.88965;974.5248;;;;
2020/01/01 11:40:41;;;;;;;35.8;31.9;;;;;;;3.7;83.09082;974.5655;;;;
2020/01/01 11:43:06;;;;;;;35;31;;;;;;;3.72;83.06055;974.5444;;;;
2020/01/01 11:45:34;;;;;;;35.7;31.8;;;;;;;3.69;83.43652;974.5452;;;;
2020/01/01 11:47:59;;;;;;;35.7;31.2;;;;;;;3.79;83.51465;974.5538;;;;
2020/01/01 11:50:24;;;;;;;35.9;32;;;;;;;3.77;83.0127;974.5136;;;;
2020/01/01 11:52:49;;;;;;;36.6;31.8;;;;;;;3.86;82.90527;974.5109;;;;
2020/01/01 11:55:14;;;;;;;37.3;32.3;;;;;;;3.94;83.27246;974.4459;;;;
2020/01/01 11:57:39;;;;;;;36.1;32;;;;;;;3.87;83.12305;974.3441;;;;
2020/01/01 12:00:04;;;;;;;37.1;32.3;;;;;;;3.8;83.29199;974.3712;;;;
2020/01/01 12:02:32;;;;;;;35.2;31.4;;;;;;;3.75;83.43945;974.3102;;;;
2020/01/01 12:04:55;;;;;;;36;32.1;;;;;;;3.72;83.53613;974.3228;;;;
2020/01/01 12:07:20;;;;;;;34.6;30.7;;;;;;;3.74;84.02734;974.3702;;;;
2020/01/01 12:09:45;;;;;;;37.5;31.6;;;;;;;3.78;83.40137;974.2681;;;;
2020/01/01 12:12:10;;;;;;;33.4;29.7;;;;;;;3.72;83.44434;974.2926;;;;
2020/01/01 12:14:35;;;;;;;35.3;30.6;;;;;;;3.8;83.45996;974.2648;;;;
2020/01/01 12:17:00;;;;;;;33.5;29.4;;;;;;;3.95;82.96875;974.1926;;;;
2020/01/01 12:19:26;;;;;;;33;29.4;;;;;;;3.98;82.55469;974.1357;;;;
2020/01/01 12:21:51;;;;;;;32.6;29;;;;;;;3.9;82.86914;974.1407;;;;
2020/01/01 12:24:16;;;;;;;35;29.7;;;;;;;3.87;82.83887;974.1192;;;;
2020/01/01 12:26:41;;;;;;;32.3;28.8;;;;;;;3.89;83.28613;974.0831;;;;
2020/01/01 12:29:06;;;;;;;32.9;29.4;;;;;;;3.95;82.74121;974.1853;;;;
2020/01/01 12:31:32;;;;;;;31.8;28.3;;;;;;;3.91;82.71191;974.1364;;;;
2020/01/01 12:33:57;;;;;;;32.8;28.9;;;;;;;3.88;83.10156;974.0941;;;;
2020/01/01 12:36:23;;;;;;;34.7;29.7;;;;;;;3.92;82.84766;974.0497;;;;
2020/01/01 12:38:48;;;;;;;32.1;28.6;;;;;;;3.96;82.76563;974.0569;;;;
2020/01/01 12:41:14;;;;;;;32.1;28.6;;;;;;;4.06;82.60547;974.0458;;;;
2020/01/01 12:43:39;;;;;;;31.1;27.7;;;;;;;4.11;82.7959;974.0291;;;;
2020/01/01 12:46:04;;;;;;;34.5;29.1;;;;;;;4.08;82.56152;973.9567;;;;
2020/01/01 12:48:29;;;;;;;33.2;28.2;;;;;;;4.08;83.15332;973.9225;;;;
2020/01/01 12:50:56;;;;;;;31.3;28;;;;;;;4.16;82.68164;973.9164;;;;
2020/01/01 12:53:21;;;;;;;31.7;27.8;;;;;;;4.2;82.79004;973.7849;;;;
2020/01/01 12:55:46;;;;;;;33.1;29;;;;;;;4.19;83.16309;973.7417;;;;
2020/01/01 12:58:11;;;;;;;31.9;28.4;;;;;;;4.14;83.89063;973.7584;;;;
2020/01/01 13:00:36;;;;;;;33.9;29.7;;;;;;;4.13;82.65137;973.7498;;;;
2020/01/01 13:03:01;;;;;;;33.3;29.4;;;;;;;4.22;82.62598;973.6633;;;;
2020/01/01 13:05:26;;;;;;;31.1;27.8;;;;;;;4.22;83.00977;973.6392;;;;
2020/01/01 13:07:51;;;;;;;32.2;28.7;;;;;;;4.37;82.29004;973.6521;;;;
2020/01/01 13:10:17;;;;;;;33.9;28.4;;;;;;;4.27;82.18066;973.6136;;;;
2020/01/01 13:12:42;;;;;;;30.9;27.6;;;;;;;4.27;82.27148;973.5936;;;;
2020/01/01 13:15:08;;;;;;;32.8;29.3;;;;;;;4.28;82.23926;973.5422;;;;
2020/01/01 13:17:33;;;;;;;34.4;30.1;;;;;;;4.25;82.51758;973.5795;;;;
2020/01/01 13:19:59;;;;;;;32.7;29.1;;;;;;;4.21;82.71289;973.5469;;;;
2020/01/01 13:22:24;;;;;;;33.6;29.9;;;;;;;4.27;82.56641;973.4473;;;;
2020/01/01 13:24:49;;;;;;;34.8;30.9;;;;;;;4.24;82.57031;973.4422;;;;
2020/01/01 13:27:14;;;;;;;36.3;30.2;;;;;;;4.11;83.16992;973.4025;;;;
2020/01/01 13:29:39;;;;;;;33;29.3;;;;;;;4.24;82.87891;973.403;;;;
2020/01/01 13:32:05;;;;;;;33.1;29.2;;;;;;;4.19;83.03809;973.4716;;;;
2020/01/01 13:34:30;;;;;;;36.3;31.1;;;;;;;4.21;82.92969;973.4236;;;;
2020/01/01 13:36:56;;;;;;;33.7;29.5;;;;;;;4.15;83.55273;973.4467;;;;
2020/01/01 13:39:21;;;;;;;32.2;28.7;;;;;;;4.23;83.04688;973.4816;;;;
2020/01/01 13:41:46;;;;;;;32.7;28.6;;;;;;;4.34;82.56738;973.4603;;;;
2020/01/01 13:44:11;;;;;;;33.4;29;;;;;;;4.19;83.15137;973.4916;;;;
2020/01/01 13:46:37;;;;;;;32.5;28.7;;;;;;;4.22;82.96387;973.5145;;;;
2020/01/01 13:49:02;;;;;;;30.6;27.3;;;;;;;4.31;82.28906;973.5681;;;;
2020/01/01 13:51:28;;;;;;;30.7;27.1;;;;;;;4.3;82.45801;973.5162;;;;
2020/01/01 13:53:53;;;;;;;33.4;28.7;;;;;;;4.3;82.49414;973.5933;;;;
2020/01/01 13:56:18;;;;;;;30.7;27.4;;;;;;;4.27;82.58887;973.5742;;;;
2020/01/01 13:58:44;;;;;;;30.3;27;;;;;;;4.24;82.80859;973.5519;;;;
2020/01/01 14:01:10;;;;;;;33.2;28.2;;;;;;;4.33;82.69141;973.483;;;;
2020/01/01 14:03:34;;;;;;;31.8;28.4;;;;;;;4.36;82.3457;973.5712;;;;
2020/01/01 14:05:59;;;;;;;31.3;27.6;;;;;;;4.34;82.45313;973.4942;;;;